createdAt,value
2017-02-28T00:00:05.994Z,983.89
2017-02-28T00:01:06.016Z,983.9
2017-02-28T00:02:06.028Z,983.84
2017-02-28T00:03:06.062Z,983.85
2017-02-28T00:04:06.062Z,983.88
2017-02-28T00:05:06.096Z,983.84
2017-02-28T00:06:06.096Z,983.83
2017-02-28T00:07:06.133Z,983.78
2017-02-28T00:08:06.131Z,983.71
2017-02-28T00:09:06.169Z,983.65
2017-02-28T00:10:06.163Z,983.61
2017-02-28T00:11:06.208Z,983.55
2017-02-28T00:12:06.198Z,983.51
2017-02-28T00:13:06.255Z,983.62
2017-02-28T00:14:06.232Z,983.58
2017-02-28T00:15:06.250Z,983.56
2017-02-28T00:16:06.265Z,983.53
2017-02-28T00:17:06.282Z,983.47
2017-02-28T00:18:06.299Z,983.46
2017-02-28T00:19:06.317Z,983.45
2017-02-28T00:20:06.334Z,983.37
2017-02-28T00:21:06.351Z,983.39
2017-02-28T00:22:06.368Z,983.37
2017-02-28T00:23:06.386Z,983.35
2017-02-28T00:24:06.402Z,983.43
2017-02-28T00:25:06.432Z,983.45
2017-02-28T00:26:06.435Z,983.45
2017-02-28T00:27:06.478Z,983.51
2017-02-28T00:28:06.471Z,983.52
2017-02-28T00:29:06.504Z,983.57
2017-02-28T00:30:06.505Z,983.57
2017-02-28T00:31:06.544Z,983.57
2017-02-28T00:32:06.538Z,983.47
2017-02-28T00:33:06.580Z,983.46
2017-02-28T00:34:06.573Z,983.46
2017-02-28T00:35:06.606Z,983.44
2017-02-28T00:36:06.608Z,983.4
2017-02-28T00:37:06.644Z,983.42
2017-02-28T00:38:06.641Z,983.38
2017-02-28T00:39:06.675Z,983.39
2017-02-28T00:40:06.675Z,983.4
2017-02-28T00:41:06.716Z,983.4
2017-02-28T00:42:06.708Z,983.43
2017-02-28T00:43:06.748Z,983.41
2017-02-28T00:44:06.742Z,983.36
2017-02-28T00:45:06.778Z,983.36
2017-02-28T00:46:06.778Z,983.34
2017-02-28T00:47:06.809Z,983.32
2017-02-28T00:48:06.813Z,983.27
2017-02-28T00:49:06.830Z,983.29
2017-02-28T00:50:06.844Z,983.26
2017-02-28T00:51:06.862Z,983.24
2017-02-28T00:52:06.880Z,983.3
2017-02-28T00:53:06.912Z,983.26
2017-02-28T00:54:06.913Z,983.26
2017-02-28T00:55:06.952Z,983.24
2017-02-28T00:56:06.947Z,983.29
2017-02-28T00:57:06.982Z,983.28
2017-02-28T00:58:06.984Z,983.24
2017-02-28T00:59:07.012Z,983.24
2017-02-28T01:00:07.015Z,983.21
2017-02-28T01:01:07.045Z,983.19
2017-02-28T01:02:07.049Z,983.23
2017-02-28T01:03:07.067Z,983.23
2017-02-28T01:04:07.084Z,983.2
2017-02-28T01:05:07.101Z,983.21
2017-02-28T01:06:07.119Z,983.17
2017-02-28T01:07:07.157Z,983.07
2017-02-28T01:08:07.152Z,983.1
2017-02-28T01:09:07.188Z,983.01
2017-02-28T01:10:07.186Z,983.04
2017-02-28T01:11:07.227Z,983.09
2017-02-28T01:12:07.222Z,983.06
2017-02-28T01:13:07.239Z,983
2017-02-28T01:14:07.255Z,983.01
2017-02-28T01:15:07.273Z,982.98
2017-02-28T01:16:07.290Z,982.97
2017-02-28T01:17:07.324Z,982.97
2017-02-28T01:18:07.323Z,982.9
2017-02-28T01:19:07.352Z,982.75
2017-02-28T01:20:07.358Z,982.79
2017-02-28T01:21:07.394Z,982.84
2017-02-28T01:22:07.392Z,982.8
2017-02-28T01:23:07.427Z,982.83
2017-02-28T01:24:07.426Z,982.83
2017-02-28T01:25:07.462Z,982.85
2017-02-28T01:26:07.460Z,982.87
2017-02-28T01:27:07.495Z,982.88
2017-02-28T01:28:07.496Z,982.84
2017-02-28T01:29:07.530Z,982.79
2017-02-28T01:30:07.528Z,982.77
2017-02-28T01:31:07.568Z,982.79
2017-02-28T01:32:07.563Z,982.73
2017-02-28T01:33:07.600Z,982.72
2017-02-28T01:34:07.596Z,982.74
2017-02-28T01:35:07.638Z,982.61
2017-02-28T01:36:07.632Z,982.52
2017-02-28T01:37:07.668Z,982.48
2017-02-28T01:38:07.665Z,982.39
2017-02-28T01:39:07.706Z,982.43
2017-02-28T01:40:07.700Z,982.53
2017-02-28T01:41:07.725Z,982.58
2017-02-28T01:42:07.734Z,982.78
2017-02-28T01:43:07.771Z,982.68
2017-02-28T01:44:07.768Z,982.71
2017-02-28T01:45:07.802Z,982.6
2017-02-28T01:46:07.803Z,982.63
2017-02-28T01:47:07.830Z,982.56
2017-02-28T01:48:07.836Z,982.51
2017-02-28T01:49:07.871Z,982.52
2017-02-28T01:50:07.870Z,982.53
2017-02-28T01:51:07.899Z,982.51
2017-02-28T01:52:07.904Z,982.49
2017-02-28T01:53:07.954Z,982.49
2017-02-28T01:54:07.937Z,982.5
2017-02-28T01:55:07.971Z,982.45
2017-02-28T01:56:07.975Z,982.43
2017-02-28T01:57:08.003Z,982.37
2017-02-28T01:58:08.007Z,982.42
2017-02-28T01:59:08.041Z,982.4
2017-02-28T02:00:08.040Z,982.34
2017-02-28T02:01:08.081Z,982.33
2017-02-28T02:02:08.075Z,982.36
2017-02-28T02:03:08.111Z,982.33
2017-02-28T02:04:08.110Z,982.27
2017-02-28T02:05:08.146Z,982.25
2017-02-28T02:06:08.143Z,982.23
2017-02-28T02:07:08.179Z,982.18
2017-02-28T02:08:08.179Z,982.2
2017-02-28T02:09:08.213Z,982.25
2017-02-28T02:10:08.210Z,982.12
2017-02-28T02:11:08.253Z,982.11
2017-02-28T02:12:08.246Z,982.16
2017-02-28T02:13:08.281Z,982.22
2017-02-28T02:14:08.280Z,982.24
2017-02-28T02:15:08.319Z,982.22
2017-02-28T02:16:08.313Z,982.2
2017-02-28T02:17:08.346Z,982.24
2017-02-28T02:18:08.347Z,982.22
2017-02-28T02:19:08.381Z,982.16
2017-02-28T02:20:08.381Z,982.2
2017-02-28T02:21:08.422Z,982.21
2017-02-28T02:22:08.414Z,982.17
2017-02-28T02:23:08.451Z,982.21
2017-02-28T02:24:08.448Z,982.25
2017-02-28T02:25:08.489Z,982.2
2017-02-28T02:26:08.482Z,982.15
2017-02-28T02:27:08.516Z,982.1
2017-02-28T02:28:08.518Z,982.08
2017-02-28T02:29:08.540Z,982.06
2017-02-28T02:30:08.551Z,982.04
2017-02-28T02:31:08.569Z,982.1
2017-02-28T02:32:08.585Z,982.14
2017-02-28T02:33:08.605Z,982.15
2017-02-28T02:34:08.619Z,982.11
2017-02-28T02:35:08.654Z,982.09
2017-02-28T02:36:08.651Z,982.08
2017-02-28T02:37:08.686Z,982.02
2017-02-28T02:38:08.687Z,982.07
2017-02-28T02:39:08.708Z,982.08
2017-02-28T02:40:08.720Z,982.08
2017-02-28T02:41:08.772Z,981.93
2017-02-28T02:42:08.755Z,981.89
2017-02-28T02:43:08.771Z,981.88
2017-02-28T02:44:08.788Z,981.84
2017-02-28T02:45:08.822Z,981.83
2017-02-28T02:46:08.822Z,981.85
2017-02-28T02:47:08.864Z,981.81
2017-02-28T02:48:08.855Z,981.79
2017-02-28T02:49:08.891Z,981.79
2017-02-28T02:50:08.890Z,981.76
2017-02-28T02:51:08.925Z,981.69
2017-02-28T02:52:08.922Z,981.71
2017-02-28T02:53:08.958Z,981.78
2017-02-28T02:54:08.955Z,981.81
2017-02-28T02:55:08.998Z,981.82
2017-02-28T02:56:08.991Z,981.88
2017-02-28T02:57:09.025Z,981.83
2017-02-28T02:58:09.025Z,981.86
2017-02-28T02:59:09.052Z,981.88
2017-02-28T03:00:09.061Z,981.87
2017-02-28T03:01:09.094Z,981.87
2017-02-28T03:02:09.092Z,981.77
2017-02-28T03:03:09.127Z,981.75
2017-02-28T03:04:09.127Z,981.74
2017-02-28T03:05:09.159Z,981.75
2017-02-28T03:06:09.161Z,981.73
2017-02-28T03:07:09.200Z,981.69
2017-02-28T03:08:09.193Z,981.67
2017-02-28T03:09:09.236Z,981.64
2017-02-28T03:10:09.226Z,981.61
2017-02-28T03:11:09.265Z,981.64
2017-02-28T03:12:09.261Z,981.62
2017-02-28T03:13:09.296Z,981.68
2017-02-28T03:14:09.295Z,981.66
2017-02-28T03:15:09.318Z,981.68
2017-02-28T03:16:09.330Z,981.7
2017-02-28T03:17:09.362Z,981.68
2017-02-28T03:18:09.568Z,981.73
2017-02-28T03:19:09.466Z,981.71
2017-02-28T03:20:09.438Z,981.71
2017-02-28T03:21:09.447Z,981.67
2017-02-28T03:22:09.456Z,981.58
2017-02-28T03:23:09.444Z,981.59
2017-02-28T03:24:09.462Z,981.51
2017-02-28T03:25:09.481Z,981.55
2017-02-28T03:26:09.497Z,981.67
2017-02-28T03:27:09.513Z,981.68
2017-02-28T03:28:09.530Z,981.76
2017-02-28T03:29:09.547Z,981.86
2017-02-28T03:30:09.565Z,981.86
2017-02-28T03:31:09.581Z,981.81
2017-02-28T03:32:09.598Z,981.87
2017-02-28T03:33:09.615Z,981.91
2017-02-28T03:34:09.631Z,981.96
2017-02-28T03:35:09.649Z,981.98
2017-02-28T03:36:09.666Z,981.97
2017-02-28T03:37:09.681Z,981.98
2017-02-28T03:38:09.699Z,981.92
2017-02-28T03:39:09.716Z,981.9
2017-02-28T03:40:09.732Z,981.9
2017-02-28T03:41:09.747Z,981.9
2017-02-28T03:42:09.765Z,981.92
2017-02-28T03:43:09.783Z,981.96
2017-02-28T03:44:09.808Z,981.94
2017-02-28T03:45:09.814Z,981.96
2017-02-28T03:46:09.833Z,981.98
2017-02-28T03:47:09.848Z,982.02
2017-02-28T03:48:09.865Z,982.04
2017-02-28T03:49:09.882Z,982.11
2017-02-28T03:50:09.899Z,982.21
2017-02-28T03:51:09.915Z,982.24
2017-02-28T03:52:09.932Z,982.32
2017-02-28T03:53:09.949Z,982.4
2017-02-28T03:54:09.965Z,982.51
2017-02-28T03:55:09.983Z,982.58
2017-02-28T03:56:09.999Z,982.6
2017-02-28T03:57:10.016Z,982.79
2017-02-28T03:58:10.032Z,982.83
2017-02-28T03:59:10.049Z,982.77
2017-02-28T04:00:10.066Z,982.83
2017-02-28T04:01:10.082Z,982.91
2017-02-28T04:02:10.099Z,983.03
2017-02-28T04:03:10.115Z,983.01
2017-02-28T04:04:10.132Z,983.05
2017-02-28T04:05:10.151Z,982.95
2017-02-28T04:06:10.167Z,983.07
2017-02-28T04:07:10.182Z,982.96
2017-02-28T04:08:10.199Z,983.01
2017-02-28T04:09:10.217Z,982.99
2017-02-28T04:10:10.237Z,982.99
2017-02-28T04:11:10.250Z,983
2017-02-28T04:12:10.267Z,982.99
2017-02-28T04:13:10.283Z,983.09
2017-02-28T04:14:10.299Z,983.13
2017-02-28T04:15:10.316Z,983.06
2017-02-28T04:16:10.445Z,983.11
2017-02-28T04:17:10.350Z,983.12
2017-02-28T04:18:10.366Z,983.13
2017-02-28T04:19:10.399Z,983.22
2017-02-28T04:20:10.401Z,983.15
2017-02-28T04:21:10.417Z,983.12
2017-02-28T04:22:10.432Z,983.02
2017-02-28T04:23:10.541Z,982.98
2017-02-28T04:24:10.467Z,982.93
2017-02-28T04:25:10.482Z,983
2017-02-28T04:26:10.499Z,982.97
2017-02-28T04:27:10.516Z,982.9
2017-02-28T04:28:10.533Z,982.83
2017-02-28T04:29:10.549Z,982.79
2017-02-28T04:30:10.566Z,982.83
2017-02-28T04:31:10.584Z,982.85
2017-02-28T04:32:10.599Z,982.9
2017-02-28T04:33:10.616Z,982.79
2017-02-28T04:34:10.631Z,982.72
2017-02-28T04:35:10.648Z,982.65
2017-02-28T04:36:10.664Z,982.71
2017-02-28T04:37:10.681Z,982.7
2017-02-28T04:38:10.698Z,982.67
2017-02-28T04:39:10.715Z,982.66
2017-02-28T04:40:10.730Z,982.64
2017-02-28T04:41:10.747Z,982.58
2017-02-28T04:42:10.765Z,982.55
2017-02-28T04:43:10.781Z,982.51
2017-02-28T04:44:10.796Z,982.51
2017-02-28T04:45:10.814Z,982.59
2017-02-28T04:46:10.833Z,982.5
2017-02-28T04:47:10.845Z,982.51
2017-02-28T04:48:10.861Z,982.46
2017-02-28T04:49:10.879Z,982.49
2017-02-28T04:50:10.894Z,982.45
2017-02-28T04:51:10.912Z,982.43
2017-02-28T04:52:10.930Z,982.4
2017-02-28T04:53:10.944Z,982.48
2017-02-28T04:54:10.960Z,982.43
2017-02-28T04:55:10.977Z,982.49
2017-02-28T04:56:10.993Z,982.44
2017-02-28T04:57:11.009Z,982.39
2017-02-28T04:58:11.089Z,982.4
2017-02-28T04:59:11.042Z,982.42
2017-02-28T05:00:11.058Z,982.5
2017-02-28T05:01:11.075Z,982.51
2017-02-28T05:02:11.089Z,982.45
2017-02-28T05:03:11.107Z,982.46
2017-02-28T05:04:11.124Z,982.52
2017-02-28T05:05:11.139Z,982.46
2017-02-28T05:06:11.157Z,982.47
2017-02-28T05:07:11.172Z,982.35
2017-02-28T05:08:11.189Z,982.41
2017-02-28T05:09:11.204Z,982.31
2017-02-28T05:10:11.220Z,982.37
2017-02-28T05:11:11.238Z,982.33
2017-02-28T05:12:11.254Z,982.41
2017-02-28T05:13:11.269Z,982.39
2017-02-28T05:14:11.286Z,982.3
2017-02-28T05:15:11.301Z,982.27
2017-02-28T05:16:11.317Z,982.26
2017-02-28T05:17:11.334Z,982.22
2017-02-28T05:18:11.350Z,982.31
2017-02-28T05:19:11.366Z,982.25
2017-02-28T05:20:11.382Z,982.27
2017-02-28T05:21:11.399Z,982.31
2017-02-28T05:22:11.414Z,982.39
2017-02-28T05:23:11.434Z,982.35
2017-02-28T05:24:11.448Z,982.53
2017-02-28T05:25:11.462Z,982.38
2017-02-28T05:26:11.479Z,982.47
2017-02-28T05:27:11.493Z,982.58
2017-02-28T05:28:11.513Z,982.51
2017-02-28T05:29:11.526Z,982.55
2017-02-28T05:30:11.542Z,982.52
2017-02-28T05:31:11.557Z,982.53
2017-02-28T05:32:11.574Z,982.5
2017-02-28T05:33:11.590Z,982.58
2017-02-28T05:34:11.605Z,982.62
2017-02-28T05:35:11.622Z,982.7
2017-02-28T05:36:11.638Z,982.64
2017-02-28T05:37:11.656Z,982.67
2017-02-28T05:38:11.678Z,982.63
2017-02-28T05:39:11.684Z,982.79
2017-02-28T05:40:11.700Z,982.68
2017-02-28T05:41:11.717Z,982.67
2017-02-28T05:42:11.733Z,982.65
2017-02-28T05:43:11.748Z,982.7
2017-02-28T05:44:11.765Z,982.84
2017-02-28T05:45:11.780Z,982.86
2017-02-28T05:46:11.798Z,982.94
2017-02-28T05:47:11.812Z,982.9
2017-02-28T05:48:11.827Z,982.88
2017-02-28T05:49:11.844Z,982.78
2017-02-28T05:50:11.859Z,982.71
2017-02-28T05:51:11.875Z,982.66
2017-02-28T05:52:11.890Z,982.53
2017-02-28T05:53:11.905Z,982.52
2017-02-28T05:54:11.921Z,982.55
2017-02-28T05:55:11.938Z,982.59
2017-02-28T05:56:11.955Z,982.72
2017-02-28T05:57:11.968Z,982.69
2017-02-28T05:58:11.985Z,982.61
2017-02-28T05:59:12.002Z,982.69
2017-02-28T06:00:12.016Z,982.71
2017-02-28T06:01:12.033Z,982.78
2017-02-28T06:02:12.052Z,982.89
2017-02-28T06:03:12.065Z,982.99
2017-02-28T06:04:12.078Z,983
2017-02-28T06:05:12.178Z,983.01
2017-02-28T06:06:12.110Z,983
2017-02-28T06:07:12.126Z,983.03
2017-02-28T06:08:12.140Z,983.03
2017-02-28T06:09:12.159Z,983.07
2017-02-28T06:10:12.173Z,983.19
2017-02-28T06:11:12.189Z,983.14
2017-02-28T06:12:12.204Z,983.12
2017-02-28T06:13:12.220Z,983.21
2017-02-28T06:14:12.237Z,983.27
2017-02-28T06:15:12.251Z,983.38
2017-02-28T06:16:12.269Z,983.39
2017-02-28T06:17:12.283Z,983.38
2017-02-28T06:18:12.299Z,983.35
2017-02-28T06:19:12.314Z,983.39
2017-02-28T06:20:12.329Z,983.37
2017-02-28T06:21:12.345Z,983.44
2017-02-28T06:22:12.361Z,983.53
2017-02-28T06:23:12.375Z,983.58
2017-02-28T06:24:12.392Z,983.59
2017-02-28T06:25:12.408Z,983.57
2017-02-28T06:26:12.423Z,983.63
2017-02-28T06:27:12.439Z,983.66
2017-02-28T06:28:12.456Z,983.63
2017-02-28T06:29:12.469Z,983.67
2017-02-28T06:30:12.486Z,983.67
2017-02-28T06:31:12.501Z,983.6
2017-02-28T06:32:12.515Z,983.57
2017-02-28T06:33:12.530Z,983.62
2017-02-28T06:34:12.660Z,983.6
2017-02-28T06:35:12.562Z,983.55
2017-02-28T06:36:12.578Z,983.55
2017-02-28T06:37:12.594Z,983.56
2017-02-28T06:38:12.608Z,983.54
2017-02-28T06:39:12.625Z,983.49
2017-02-28T06:40:12.640Z,983.52
2017-02-28T06:41:12.657Z,983.5
2017-02-28T06:42:12.672Z,983.59
2017-02-28T06:43:12.687Z,983.64
2017-02-28T06:44:12.703Z,983.54
2017-02-28T06:45:12.720Z,983.55
2017-02-28T06:46:12.733Z,983.57
2017-02-28T06:47:12.750Z,983.55
2017-02-28T06:48:12.764Z,983.63
2017-02-28T06:49:12.781Z,983.65
2017-02-28T06:50:12.797Z,983.66
2017-02-28T06:51:12.811Z,983.73
2017-02-28T06:52:12.826Z,983.71
2017-02-28T06:53:12.843Z,983.68
2017-02-28T06:54:12.856Z,983.62
2017-02-28T06:55:12.873Z,983.64
2017-02-28T06:56:12.889Z,983.61
2017-02-28T06:57:12.904Z,983.56
2017-02-28T06:58:12.920Z,983.54
2017-02-28T06:59:12.936Z,983.5
2017-02-28T07:00:12.950Z,983.63
2017-02-28T07:01:12.966Z,983.69
2017-02-28T07:02:12.981Z,983.75
2017-02-28T07:03:12.997Z,983.75
2017-02-28T07:04:13.013Z,983.74
2017-02-28T07:05:13.027Z,983.69
2017-02-28T07:06:13.043Z,983.69
2017-02-28T07:07:13.059Z,983.74
2017-02-28T07:08:13.124Z,983.82
2017-02-28T07:09:13.090Z,983.92
2017-02-28T07:10:13.104Z,984.01
2017-02-28T07:11:13.120Z,984.04
2017-02-28T07:12:13.136Z,984.1
2017-02-28T07:13:13.152Z,984.08
2017-02-28T07:14:13.166Z,984.12
2017-02-28T07:15:13.181Z,984.12
2017-02-28T07:16:13.198Z,984.09
2017-02-28T07:17:13.212Z,984
2017-02-28T07:18:13.227Z,983.95
2017-02-28T07:19:13.244Z,983.94
2017-02-28T07:20:13.260Z,983.87
2017-02-28T07:21:13.274Z,983.89
2017-02-28T07:22:13.289Z,983.9
2017-02-28T07:23:13.304Z,983.94
2017-02-28T07:24:13.320Z,983.99
2017-02-28T07:25:13.335Z,984.04
2017-02-28T07:26:13.352Z,984.01
2017-02-28T07:27:13.368Z,984.07
2017-02-28T07:28:13.382Z,984.13
2017-02-28T07:29:13.398Z,984.21
2017-02-28T07:30:13.413Z,984.14
2017-02-28T07:31:13.429Z,984.14
2017-02-28T07:32:13.443Z,984.13
2017-02-28T07:33:13.459Z,984.12
2017-02-28T07:34:13.474Z,984.04
2017-02-28T07:35:13.489Z,984.02
2017-02-28T07:36:13.506Z,983.99
2017-02-28T07:37:13.521Z,984.05
2017-02-28T07:38:13.536Z,984.06
2017-02-28T07:39:13.612Z,984.04
2017-02-28T07:40:13.566Z,984.07
2017-02-28T07:41:13.581Z,984.07
2017-02-28T07:42:13.598Z,984.08
2017-02-28T07:43:13.612Z,984.01
2017-02-28T07:44:13.628Z,983.96
2017-02-28T07:45:13.643Z,983.98
2017-02-28T07:46:13.658Z,983.98
2017-02-28T07:47:13.675Z,984.08
2017-02-28T07:48:13.690Z,984.08
2017-02-28T07:49:13.705Z,984.03
2017-02-28T07:50:13.719Z,984.06
2017-02-28T07:51:13.734Z,984.03
2017-02-28T07:52:13.751Z,984.04
2017-02-28T07:53:13.766Z,984.08
2017-02-28T07:54:13.782Z,984.03
2017-02-28T07:55:13.796Z,983.97
2017-02-28T07:56:13.812Z,984
2017-02-28T07:57:13.831Z,984
2017-02-28T07:58:13.842Z,984
2017-02-28T07:59:13.859Z,983.97
2017-02-28T08:00:13.874Z,983.89
2017-02-28T08:01:13.889Z,983.9
2017-02-28T08:02:13.974Z,983.9
2017-02-28T08:03:13.921Z,983.89
2017-02-28T08:04:13.935Z,983.91
2017-02-28T08:05:13.951Z,983.89
2017-02-28T08:06:13.966Z,983.86
2017-02-28T08:07:13.982Z,983.84
2017-02-28T08:08:13.998Z,983.9
2017-02-28T08:09:14.013Z,983.97
2017-02-28T08:10:14.029Z,983.99
2017-02-28T08:11:14.044Z,983.99
2017-02-28T08:12:14.059Z,983.99
2017-02-28T08:13:14.374Z,983.93
2017-02-28T08:14:14.087Z,983.89
2017-02-28T08:15:14.104Z,983.86
2017-02-28T08:16:14.120Z,983.8
2017-02-28T08:17:14.136Z,983.86
2017-02-28T08:18:14.154Z,983.99
2017-02-28T08:19:14.166Z,983.99
2017-02-28T08:20:14.182Z,983.98
2017-02-28T08:21:14.196Z,984.02
2017-02-28T08:22:14.213Z,984.06
2017-02-28T08:23:14.229Z,984.09
2017-02-28T08:24:14.247Z,984.1
2017-02-28T08:25:14.261Z,984.11
2017-02-28T08:26:14.275Z,984.21
2017-02-28T08:27:14.295Z,984.25
2017-02-28T08:28:14.307Z,984.21
2017-02-28T08:29:14.325Z,984.24
2017-02-28T08:30:14.346Z,984.18
2017-02-28T08:31:14.355Z,984.29
2017-02-28T08:32:14.372Z,984.34
2017-02-28T08:33:14.454Z,984.27
2017-02-28T08:34:14.399Z,984.22
2017-02-28T08:35:14.416Z,984.17
2017-02-28T08:36:14.432Z,984.19
2017-02-28T08:37:14.457Z,984.12
2017-02-28T08:38:14.461Z,984.11
2017-02-28T08:39:14.477Z,984.15
2017-02-28T08:40:14.493Z,984.13
2017-02-28T08:41:14.510Z,984.08
2017-02-28T08:42:14.525Z,984.08
2017-02-28T08:43:14.540Z,984.09
2017-02-28T08:44:14.556Z,984.13
2017-02-28T08:45:14.572Z,984.18
2017-02-28T08:46:14.588Z,984.24
2017-02-28T08:47:14.603Z,984.17
2017-02-28T08:48:14.618Z,984.11
2017-02-28T08:49:14.633Z,984.25
2017-02-28T08:50:14.649Z,984.22
2017-02-28T08:51:14.665Z,984.17
2017-02-28T08:52:14.680Z,984.21
2017-02-28T08:53:14.697Z,984.3
2017-02-28T08:54:14.712Z,984.32
2017-02-28T08:55:14.802Z,984.28
2017-02-28T08:56:14.745Z,984.37
2017-02-28T08:57:14.758Z,984.32
2017-02-28T08:58:14.775Z,984.31
2017-02-28T08:59:14.790Z,984.22
2017-02-28T09:00:14.806Z,984.33
2017-02-28T09:01:14.822Z,984.4
2017-02-28T09:02:14.839Z,984.41
2017-02-28T09:03:14.853Z,984.32
2017-02-28T09:04:14.869Z,984.31
2017-02-28T09:05:14.885Z,984.23
2017-02-28T09:06:14.902Z,984.22
2017-02-28T09:07:14.917Z,984.1
2017-02-28T09:08:14.931Z,984
2017-02-28T09:09:14.948Z,984.07
2017-02-28T09:10:14.963Z,984.09
2017-02-28T09:11:14.978Z,984.16
2017-02-28T09:12:14.994Z,984.21
2017-02-28T09:13:15.010Z,984.14
2017-02-28T09:14:15.026Z,984.13
2017-02-28T09:15:15.045Z,984.1
2017-02-28T09:16:15.058Z,984.04
2017-02-28T09:17:15.074Z,984.04
2017-02-28T09:18:15.088Z,983.99
2017-02-28T09:19:15.105Z,984.04
2017-02-28T09:20:15.120Z,984.08
2017-02-28T09:21:15.135Z,984.04
2017-02-28T09:22:15.152Z,984.04
2017-02-28T09:23:15.168Z,984.13
2017-02-28T09:24:15.184Z,984.15
2017-02-28T09:25:15.200Z,984.13
2017-02-28T09:26:15.216Z,984.08
2017-02-28T09:27:15.232Z,984.05
2017-02-28T09:28:15.248Z,984.07
2017-02-28T09:29:15.262Z,984.05
2017-02-28T09:30:15.278Z,984.09
2017-02-28T09:31:15.294Z,984.13
2017-02-28T09:32:15.310Z,984.02
2017-02-28T09:33:15.326Z,984.1
2017-02-28T09:34:15.343Z,984.06
2017-02-28T09:35:15.358Z,984.02
2017-02-28T09:36:15.373Z,983.96
2017-02-28T09:37:15.390Z,984.08
2017-02-28T09:38:15.407Z,984.07
2017-02-28T09:39:15.423Z,984.01
2017-02-28T09:40:15.438Z,984.01
2017-02-28T09:41:15.454Z,984.04
2017-02-28T09:42:15.470Z,984.07
2017-02-28T09:43:15.485Z,984.11
2017-02-28T09:44:15.501Z,984.14
2017-02-28T09:45:15.518Z,984.2
2017-02-28T09:46:15.534Z,984.23
2017-02-28T09:47:15.549Z,984.25
2017-02-28T09:48:15.563Z,984.23
2017-02-28T09:49:15.582Z,984.29
2017-02-28T09:50:15.596Z,984.25
2017-02-28T09:51:15.614Z,984.15
2017-02-28T09:52:15.631Z,984.12
2017-02-28T09:53:15.647Z,984.21
2017-02-28T09:54:15.661Z,984.2
2017-02-28T09:55:15.679Z,984.24
2017-02-28T09:56:15.695Z,984.24
2017-02-28T09:57:15.710Z,984.27
2017-02-28T09:58:15.727Z,984.27
2017-02-28T09:59:15.741Z,984.24
2017-02-28T10:00:15.757Z,984.22
2017-02-28T10:01:15.774Z,984.21
2017-02-28T10:02:15.790Z,984.21
2017-02-28T10:03:15.909Z,984.21
2017-02-28T10:04:15.932Z,984.14
2017-02-28T10:05:15.940Z,984.17
2017-02-28T10:06:15.947Z,984.18
2017-02-28T10:07:15.871Z,984.09
2017-02-28T10:08:16.083Z,983.99
2017-02-28T10:09:15.975Z,983.99
2017-02-28T10:10:15.974Z,983.99
2017-02-28T10:11:15.983Z,983.99
2017-02-28T10:12:15.951Z,983.98
2017-02-28T10:13:16.299Z,984.01
2017-02-28T10:14:16.010Z,983.85
2017-02-28T10:15:16.000Z,983.99
2017-02-28T10:16:16.124Z,983.98
2017-02-28T10:17:16.032Z,983.98
2017-02-28T10:18:16.047Z,983.88
2017-02-28T10:19:16.065Z,983.83
2017-02-28T10:20:16.081Z,983.87
2017-02-28T10:21:16.098Z,983.88
2017-02-28T10:22:16.113Z,983.84
2017-02-28T10:23:16.128Z,983.74
2017-02-28T10:24:16.144Z,983.72
2017-02-28T10:25:16.161Z,983.74
2017-02-28T10:26:16.178Z,983.69
2017-02-28T10:27:16.192Z,983.72
2017-02-28T10:28:16.206Z,983.71
2017-02-28T10:29:16.223Z,983.66
2017-02-28T10:30:16.241Z,983.69
2017-02-28T10:31:16.256Z,983.7
2017-02-28T10:32:16.272Z,983.66
2017-02-28T10:33:16.289Z,983.63
2017-02-28T10:34:16.303Z,983.66
2017-02-28T10:35:16.322Z,983.68
2017-02-28T10:36:16.337Z,983.77
2017-02-28T10:37:16.352Z,983.81
2017-02-28T10:38:16.369Z,983.67
2017-02-28T10:39:16.385Z,983.76
2017-02-28T10:40:16.401Z,983.73
2017-02-28T10:41:16.416Z,983.74
2017-02-28T10:42:16.432Z,983.75
2017-02-28T10:43:16.447Z,983.74
2017-02-28T10:44:16.468Z,983.77
2017-02-28T10:45:16.481Z,983.69
2017-02-28T10:46:16.496Z,983.71
2017-02-28T10:47:16.511Z,983.75
2017-02-28T10:48:16.529Z,983.75
2017-02-28T10:49:16.544Z,983.79
2017-02-28T10:50:16.560Z,983.76
2017-02-28T10:51:16.576Z,983.76
2017-02-28T10:52:16.593Z,983.76
2017-02-28T10:53:16.607Z,983.81
2017-02-28T10:54:16.625Z,983.77
2017-02-28T10:55:16.641Z,983.74
2017-02-28T10:56:16.657Z,983.8
2017-02-28T10:57:16.672Z,983.75
2017-02-28T10:58:16.688Z,983.73
2017-02-28T10:59:16.706Z,983.84
2017-02-28T11:00:16.720Z,983.83
2017-02-28T11:01:16.736Z,983.76
2017-02-28T11:02:16.753Z,983.9
2017-02-28T11:03:16.769Z,983.93
2017-02-28T11:04:16.788Z,983.79
2017-02-28T11:05:16.802Z,983.84
2017-02-28T11:06:16.817Z,983.91
2017-02-28T11:07:16.835Z,983.93
2017-02-28T11:08:16.851Z,983.75
2017-02-28T11:09:16.865Z,983.81
2017-02-28T11:10:16.884Z,983.77
2017-02-28T11:11:16.899Z,983.79
2017-02-28T11:12:16.915Z,983.84
2017-02-28T11:13:16.932Z,983.75
2017-02-28T11:14:17.026Z,983.73
2017-02-28T11:15:17.072Z,983.73
2017-02-28T11:16:17.013Z,983.69
2017-02-28T11:17:17.022Z,983.65
2017-02-28T11:18:17.199Z,983.61
2017-02-28T11:19:17.080Z,983.67
2017-02-28T11:20:17.089Z,983.63
2017-02-28T11:21:17.138Z,983.59
2017-02-28T11:22:17.093Z,983.61
2017-02-28T11:23:17.195Z,983.58
2017-02-28T11:24:17.155Z,983.55
2017-02-28T11:25:17.164Z,983.51
2017-02-28T11:26:17.172Z,983.58
2017-02-28T11:27:17.231Z,983.53
2017-02-28T11:28:17.180Z,983.58
2017-02-28T11:29:17.200Z,983.55
2017-02-28T11:30:17.212Z,983.45
2017-02-28T11:31:17.230Z,983.46
2017-02-28T11:32:17.246Z,983.42
2017-02-28T11:33:17.264Z,983.4
2017-02-28T11:34:17.278Z,983.35
2017-02-28T11:35:17.296Z,983.35
2017-02-28T11:36:17.312Z,983.36
2017-02-28T11:37:17.329Z,983.3
2017-02-28T11:38:17.346Z,983.24
2017-02-28T11:39:17.363Z,983.22
2017-02-28T11:40:17.379Z,983.1
2017-02-28T11:41:17.396Z,983.22
2017-02-28T11:42:17.413Z,983.2
2017-02-28T11:43:17.433Z,983.09
2017-02-28T11:44:17.446Z,983.19
2017-02-28T11:45:17.463Z,983.09
2017-02-28T11:46:17.480Z,983.03
2017-02-28T11:47:17.497Z,983.14
2017-02-28T11:48:17.514Z,983.11
2017-02-28T11:49:17.529Z,983.06
2017-02-28T11:50:17.548Z,983.05
2017-02-28T11:51:17.572Z,983.02
2017-02-28T11:52:17.580Z,983.06
2017-02-28T11:53:17.597Z,983.03
2017-02-28T11:54:17.615Z,982.97
2017-02-28T11:55:17.632Z,982.95
2017-02-28T11:56:17.647Z,983
2017-02-28T11:57:17.675Z,982.94
2017-02-28T11:58:17.681Z,982.88
2017-02-28T11:59:17.699Z,982.93
2017-02-28T12:00:17.718Z,982.93
2017-02-28T12:01:17.732Z,982.9
2017-02-28T12:02:17.749Z,982.95
2017-02-28T12:03:17.766Z,982.96
2017-02-28T12:04:17.784Z,982.94
2017-02-28T12:05:17.801Z,982.94
2017-02-28T12:06:17.815Z,982.89
2017-02-28T12:07:17.833Z,982.93
2017-02-28T12:08:17.850Z,982.96
2017-02-28T12:09:17.867Z,982.97
2017-02-28T12:10:17.885Z,982.89
2017-02-28T12:11:17.902Z,982.85
2017-02-28T12:12:17.918Z,982.87
2017-02-28T12:13:17.934Z,982.86
2017-02-28T12:14:17.952Z,982.8
2017-02-28T12:15:17.968Z,982.77
2017-02-28T12:16:17.986Z,982.82
2017-02-28T12:17:18.002Z,982.8
2017-02-28T12:18:18.018Z,982.85
2017-02-28T12:19:18.037Z,982.79
2017-02-28T12:20:18.054Z,982.81
2017-02-28T12:21:18.070Z,982.79
2017-02-28T12:22:18.087Z,982.8
2017-02-28T12:23:18.105Z,982.73
2017-02-28T12:24:18.120Z,982.77
2017-02-28T12:25:18.140Z,982.76
2017-02-28T12:26:18.157Z,982.74
2017-02-28T12:27:18.173Z,982.75
2017-02-28T12:28:18.189Z,982.7
2017-02-28T12:29:18.206Z,982.67
2017-02-28T12:30:18.223Z,982.62
2017-02-28T12:31:18.239Z,982.62